Time;durP1;ratioP1;P1;durP2;ratioP2;P2;SDS_P1;SDS_P2;PMS_P1;PMS_P2;Temp;Humidity;BMP_temperature;BMP_pressure;BME280_temperature;BME280_humidity;BME280_pressure;Samples;Min_cycle;Max_cycle;Signal;HPM_P1;HPM_P2
2023/05/29 00:02:08;;;;;;;3.83;0.82;;;15.20;65.20;;;;;;5030792;28;20841;-69
2023/05/29 00:04:33;;;;;;;1.58;0.95;;;15.20;65.20;;;;;;5023970;28;20105;-70
2023/05/29 00:06:59;;;;;;;3.28;1.25;;;15.20;65.20;;;;;;5030657;28;20041;-69
2023/05/29 00:09:25;;;;;;;0.68;0.60;;;15.10;65.10;;;;;;5026939;28;20036;-69
2023/05/29 00:11:52;;;;;;;4.28;1.67;;;15.20;65.10;;;;;;5029389;28;20453;-69
2023/05/29 00:14:22;;;;;;;5.00;1.35;;;15.10;65.20;;;;;;5026413;28;20084;-69
2023/05/29 00:16:48;;;;;;;1.67;1.15;;;15.00;65.40;;;;;;5030140;28;20022;-64
2023/05/29 00:19:16;;;;;;;2.75;1.35;;;14.90;65.60;;;;;;5030963;28;20054;-65
2023/05/29 00:21:43;;;;;;;2.13;0.70;;;14.90;65.60;;;;;;5035034;28;20029;-65
2023/05/29 00:24:09;;;;;;;6.75;1.40;;;14.90;65.50;;;;;;5035200;28;20173;-65
2023/05/29 00:26:35;;;;;;;3.08;1.20;;;14.90;65.50;;;;;;5023832;28;20053;-64
2023/05/29 00:29:01;;;;;;;6.78;1.00;;;14.80;65.60;;;;;;5030152;28;20445;-64
2023/05/29 00:31:27;;;;;;;8.40;1.25;;;14.70;65.50;;;;;;5038016;28;20120;-64
2023/05/29 00:33:53;;;;;;;4.13;1.50;;;14.70;65.50;;;;;;5024010;28;20032;-64
2023/05/29 00:36:19;;;;;;;5.60;1.17;;;14.70;65.50;;;;;;5038079;28;20503;-64
2023/05/29 00:38:44;;;;;;;1.98;0.90;;;14.70;65.50;;;;;;5035877;28;20108;-64
2023/05/29 00:41:15;;;;;;;3.75;1.08;;;14.70;65.40;;;;;;5030371;28;20036;-65
2023/05/29 00:43:41;;;;;;;3.20;0.98;;;14.70;65.20;;;;;;5030650;28;20397;-64
2023/05/29 00:46:08;;;;;;;0.77;0.63;;;14.70;65.20;;;;;;5031502;28;20036;-69
2023/05/29 00:48:34;;;;;;;5.20;0.93;;;14.70;65.10;;;;;;5033355;28;20030;-69
2023/05/29 00:51:00;;;;;;;3.72;1.10;;;14.60;65.00;;;;;;5038930;28;20488;-69
2023/05/29 00:53:26;;;;;;;1.50;1.10;;;14.60;65.00;;;;;;5037812;28;20052;-69
2023/05/29 00:55:52;;;;;;;2.80;1.10;;;14.60;65.10;;;;;;5035262;28;20124;-69
2023/05/29 00:58:18;;;;;;;7.28;1.42;;;14.60;65.10;;;;;;5033392;28;20052;-69
2023/05/29 01:00:44;;;;;;;1.52;0.60;;;14.60;65.00;;;;;;5032029;28;20455;-69
2023/05/29 01:03:16;;;;;;;1.15;0.98;;;14.50;64.90;;;;;;5029169;28;20026;-69
2023/05/29 01:05:42;;;;;;;2.45;1.40;;;14.50;65.00;;;;;;5025309;28;20145;-69
2023/05/29 01:08:09;;;;;;;3.97;1.27;;;14.40;65.10;;;;;;5028768;28;20363;-70
2023/05/29 01:10:35;;;;;;;1.23;0.52;;;14.40;65.10;;;;;;5012643;28;20575;-69
2023/05/29 01:13:11;;;;;;;5.47;1.75;;;14.40;65.20;;;;;;5031105;28;20108;-69
2023/05/29 01:15:55;;;;;;;4.68;0.85;;;14.40;65.20;;;;;;5028471;28;20029;-69
2023/05/29 01:18:31;;;;;;;1.05;0.90;;;14.30;65.20;;;;;;5038205;28;20559;-69
2023/05/29 01:21:02;;;;;;;4.45;1.08;;;14.40;65.90;;;;;;5036049;28;20029;-69
2023/05/29 01:23:46;;;;;;;1.20;0.82;;;14.30;65.50;;;;;;5039192;28;20025;-69
2023/05/29 01:26:42;;;;;;;5.68;1.20;;;14.30;65.50;;;;;;5029693;28;20057;-69
2023/05/29 01:29:10;;;;;;;3.15;1.08;;;14.30;65.70;;;;;;5029558;28;20029;-69
2023/05/29 01:31:39;;;;;;;4.35;0.98;;;14.20;65.70;;;;;;5036827;28;20446;-69
2023/05/29 01:34:05;;;;;;;0.47;0.47;;;14.10;65.80;;;;;;5033466;28;20034;-69
2023/05/29 01:36:32;;;;;;;1.25;0.88;;;14.20;65.90;;;;;;5034100;28;20076;-69
2023/05/29 01:38:59;;;;;;;2.78;0.75;;;14.20;65.80;;;;;;5034539;28;20546;-69
2023/05/29 01:41:25;;;;;;;4.28;0.73;;;14.20;66.00;;;;;;5034679;28;20112;-64
2023/05/29 01:43:51;;;;;;;4.78;0.85;;;14.20;65.90;;;;;;5030160;28;20450;-64
2023/05/29 01:46:19;;;;;;;4.18;1.00;;;14.10;65.90;;;;;;5033193;28;20087;-64
2023/05/29 01:48:45;;;;;;;2.20;0.77;;;14.10;65.90;;;;;;5029558;28;20041;-69
2023/05/29 01:51:12;;;;;;;2.28;0.80;;;14.10;65.80;;;;;;5028914;28;20033;-69
2023/05/29 01:53:38;;;;;;;1.55;0.90;;;14.10;65.80;;;;;;5060764;28;20539;-69
2023/05/29 01:56:06;;;;;;;3.78;1.08;;;14.00;66.00;;;;;;5027034;28;20182;-69
2023/05/29 01:58:33;;;;;;;4.03;0.98;;;14.00;66.20;;;;;;5022944;28;20067;-69
2023/05/29 02:01:01;;;;;;;2.00;0.82;;;14.00;66.30;;;;;;5027878;28;20112;-64
2023/05/29 02:03:30;;;;;;;5.43;1.25;;;14.00;66.30;;;;;;5030443;28;20033;-64
2023/05/29 02:05:58;;;;;;;1.02;0.70;;;13.90;66.30;;;;;;5023587;28;20022;-64
2023/05/29 02:08:24;;;;;;;2.58;1.15;;;13.90;66.30;;;;;;5033657;28;20083;-64
2023/05/29 02:10:50;;;;;;;3.22;1.25;;;13.90;66.30;;;;;;5026449;28;20477;-69
2023/05/29 02:13:16;;;;;;;1.25;0.88;;;13.90;66.50;;;;;;5031280;28;20032;-69
2023/05/29 02:15:42;;;;;;;3.10;0.65;;;13.80;66.60;;;;;;5029884;28;20025;-69
2023/05/29 02:18:13;;;;;;;1.58;1.02;;;13.80;66.70;;;;;;5032178;28;20451;-69
2023/05/29 02:20:39;;;;;;;1.98;0.93;;;13.70;66.70;;;;;;5025685;28;20057;-69
2023/05/29 02:23:05;;;;;;;1.80;1.02;;;13.70;66.90;;;;;;5024451;28;20518;-65
2023/05/29 02:25:31;;;;;;;1.95;0.93;;;13.60;67.00;;;;;;5022054;28;20073;-65
2023/05/29 02:27:57;;;;;;;1.60;0.50;;;13.60;67.10;;;;;;5019060;28;20160;-64
2023/05/29 02:30:22;;;;;;;10.35;1.20;;;13.60;67.20;;;;;;5020353;28;20069;-65
2023/05/29 02:32:48;;;;;;;3.08;1.13;;;13.60;67.30;;;;;;5021532;28;20026;-65
2023/05/29 02:35:15;;;;;;;3.53;1.67;;;13.50;67.40;;;;;;5027734;28;20022;-65
2023/05/29 02:37:41;;;;;;;2.70;1.30;;;13.50;67.50;;;;;;5028043;28;20088;-64
2023/05/29 02:40:08;;;;;;;0.40;0.40;;;13.50;67.60;;;;;;5029929;28;20033;-65
2023/05/29 02:42:34;;;;;;;0.75;0.40;;;13.50;67.60;;;;;;5027646;28;20034;-65
2023/05/29 02:45:00;;;;;;;1.05;0.70;;;13.40;67.70;;;;;;5028349;28;20481;-65
2023/05/29 02:47:25;;;;;;;2.33;0.85;;;13.40;67.90;;;;;;5026859;28;20044;-70
2023/05/29 02:49:51;;;;;;;3.08;1.45;;;13.40;68.00;;;;;;5033327;28;20551;-70
2023/05/29 02:52:17;;;;;;;2.83;1.33;;;13.30;68.00;;;;;;5020748;28;20068;-64
2023/05/29 02:54:42;;;;;;;5.47;1.23;;;13.30;68.10;;;;;;5031816;28;20401;-65
2023/05/29 02:57:09;;;;;;;3.38;1.08;;;13.30;68.30;;;;;;5029258;28;20105;-65
2023/05/29 02:59:35;;;;;;;3.17;1.08;;;13.30;68.20;;;;;;5036743;28;20025;-65
2023/05/29 03:02:01;;;;;;;3.40;0.95;;;13.20;68.30;;;;;;5008091;28;20037;-65
2023/05/29 03:04:27;;;;;;;2.20;0.85;;;13.20;68.40;;;;;;5026761;28;20044;-65
2023/05/29 03:06:54;;;;;;;3.97;1.10;;;13.20;68.30;;;;;;5028977;28;20083;-65
2023/05/29 03:09:20;;;;;;;1.15;0.50;;;13.20;68.40;;;;;;5029504;28;20036;-65
2023/05/29 03:11:47;;;;;;;2.20;0.93;;;13.10;68.50;;;;;;5034560;28;20029;-70
2023/05/29 03:14:13;;;;;;;1.48;0.90;;;13.10;68.60;;;;;;5038573;28;20237;-69
2023/05/29 03:16:40;;;;;;;0.85;0.60;;;13.10;68.80;;;;;;5035633;28;20053;-69
2023/05/29 03:19:07;;;;;;;4.28;1.77;;;13.00;68.80;;;;;;5019922;28;20034;-70
2023/05/29 03:21:33;;;;;;;4.10;1.00;;;13.00;69.00;;;;;;5038664;28;20037;-70
2023/05/29 03:23:59;;;;;;;2.15;0.98;;;12.90;69.00;;;;;;5035855;28;20378;-69
2023/05/29 03:26:25;;;;;;;1.48;0.68;;;12.90;69.10;;;;;;5026579;28;20146;-70
2023/05/29 03:28:51;;;;;;;1.95;0.82;;;12.90;69.20;;;;;;5037400;28;20108;-70
2023/05/29 03:31:17;;;;;;;2.83;1.38;;;12.90;69.20;;;;;;5037855;28;20026;-70
2023/05/29 03:33:42;;;;;;;2.38;1.25;;;12.80;69.20;;;;;;5036754;28;20425;-64
2023/05/29 03:36:08;;;;;;;1.23;1.10;;;12.80;69.40;;;;;;5037618;28;20057;-65
2023/05/29 03:38:34;;;;;;;1.27;1.08;;;12.80;69.50;;;;;;5025381;28;20033;-64
2023/05/29 03:41:00;;;;;;;1.05;0.85;;;12.80;69.60;;;;;;5038830;28;20112;-65
2023/05/29 03:43:25;;;;;;;4.47;1.23;;;12.80;69.50;;;;;;5036467;28;20033;-69
2023/05/29 03:45:51;;;;;;;3.53;0.80;;;12.80;69.50;;;;;;5030628;28;20424;-70
2023/05/29 03:48:17;;;;;;;4.80;1.35;;;12.80;70.30;;;;;;5030158;28;20108;-70
2023/05/29 03:50:42;;;;;;;4.72;1.35;;;12.80;69.50;;;;;;5041454;28;20409;-70
2023/05/29 03:53:08;;;;;;;2.80;1.38;;;12.80;69.50;;;;;;5037433;28;20148;-69
2023/05/29 03:55:34;;;;;;;2.20;1.17;;;12.80;69.60;;;;;;5034728;28;20481;-70
2023/05/29 03:57:59;;;;;;;3.50;0.98;;;12.80;69.70;;;;;;5034378;28;20029;-70
2023/05/29 04:00:25;;;;;;;2.70;0.88;;;12.80;69.60;;;;;;5033770;28;20124;-70
2023/05/29 04:02:51;;;;;;;1.65;1.00;;;12.80;69.60;;;;;;5033659;28;20048;-70
2023/05/29 04:05:17;;;;;;;5.15;1.95;;;12.80;69.60;;;;;;5029273;28;20496;-70
2023/05/29 04:07:42;;;;;;;1.30;0.82;;;12.80;69.60;;;;;;5032799;28;20315;-65
2023/05/29 04:10:09;;;;;;;1.25;0.70;;;12.80;69.60;;;;;;5038702;28;20582;-65
2023/05/29 04:12:35;;;;;;;4.63;1.60;;;12.80;69.70;;;;;;5033669;28;20531;-64
2023/05/29 04:15:00;;;;;;;2.08;1.13;;;12.80;69.70;;;;;;5030790;28;20022;-64
2023/05/29 04:17:26;;;;;;;1.50;0.80;;;12.80;69.70;;;;;;5030975;28;20068;-69
2023/05/29 04:19:52;;;;;;;3.33;0.77;;;12.80;69.60;;;;;;5031048;28;20374;-69
2023/05/29 04:22:17;;;;;;;2.90;2.03;;;12.90;69.70;;;;;;5023456;28;20421;-70
2023/05/29 04:24:43;;;;;;;3.33;1.20;;;12.90;69.60;;;;;;5033545;28;20034;-69
2023/05/29 04:27:12;;;;;;;3.67;0.65;;;12.90;69.80;;;;;;5028333;28;20041;-69
2023/05/29 04:29:40;;;;;;;3.05;0.68;;;12.90;69.60;;;;;;5026677;28;20046;-64
2023/05/29 04:32:08;;;;;;;5.03;1.02;;;12.90;69.50;;;;;;5028964;28;20080;-69
2023/05/29 04:34:34;;;;;;;2.35;0.90;;;12.90;69.50;;;;;;5032973;28;20112;-69
2023/05/29 04:37:00;;;;;;;2.85;1.33;;;12.90;69.50;;;;;;5032189;28;20057;-69
2023/05/29 04:39:25;;;;;;;4.57;1.63;;;12.90;69.50;;;;;;5033054;28;20053;-69
2023/05/29 04:41:52;;;;;;;1.15;0.70;;;13.00;69.50;;;;;;5030895;28;20053;-64
2023/05/29 04:44:18;;;;;;;2.30;1.23;;;13.00;69.50;;;;;;5032050;28;20115;-64
2023/05/29 04:46:44;;;;;;;7.88;1.55;;;13.00;69.50;;;;;;5010747;28;20141;-64
2023/05/29 04:49:12;;;;;;;2.20;0.98;;;13.00;69.50;;;;;;5021924;28;20428;-64
2023/05/29 04:51:40;;;;;;;5.57;1.15;;;13.00;69.50;;;;;;5025191;28;20079;-64
2023/05/29 04:54:08;;;;;;;3.47;1.60;;;13.00;69.60;;;;;;5024600;28;20045;-64
2023/05/29 04:56:34;;;;;;;1.92;1.10;;;13.00;69.50;;;;;;5025537;28;20909;-64
2023/05/29 04:59:00;;;;;;;6.82;1.42;;;13.00;69.40;;;;;;5030204;28;20037;-64
2023/05/29 05:01:26;;;;;;;4.85;1.13;;;13.00;69.60;;;;;;5042393;28;20383;-65
2023/05/29 05:03:55;;;;;;;3.50;0.73;;;13.00;69.60;;;;;;5034111;28;20060;-65
2023/05/29 05:06:22;;;;;;;2.75;1.25;;;13.00;69.70;;;;;;5029469;28;20038;-70
2023/05/29 05:08:48;;;;;;;2.05;1.08;;;13.00;69.70;;;;;;5035793;28;20048;-70
2023/05/29 05:11:14;;;;;;;2.85;1.17;;;13.10;69.60;;;;;;5042407;28;20040;-70
2023/05/29 05:13:40;;;;;;;6.00;1.80;;;13.10;69.30;;;;;;5039791;28;20032;-65
2023/05/29 05:16:06;;;;;;;2.83;0.93;;;13.20;69.30;;;;;;5041042;28;20014;-65
2023/05/29 05:18:32;;;;;;;1.83;1.10;;;13.30;69.20;;;;;;5040836;28;20372;-65
2023/05/29 05:20:58;;;;;;;3.17;0.82;;;13.30;69.10;;;;;;5028743;28;20045;-64
2023/05/29 05:23:23;;;;;;;1.70;1.15;;;13.40;68.90;;;;;;5032560;28;20037;-65
2023/05/29 05:25:49;;;;;;;7.90;1.25;;;13.30;68.80;;;;;;5035874;28;20080;-65
2023/05/29 05:28:15;;;;;;;5.15;1.25;;;13.30;68.80;;;;;;5029840;28;20400;-64
2023/05/29 05:30:40;;;;;;;3.90;1.23;;;13.30;68.80;;;;;;5028885;28;20049;-65
2023/05/29 05:33:07;;;;;;;5.25;1.23;;;13.40;68.70;;;;;;5038360;28;20586;-65
2023/05/29 05:35:33;;;;;;;0.70;0.65;;;13.40;68.60;;;;;;5038211;28;20029;-65
2023/05/29 05:38:00;;;;;;;1.70;1.23;;;13.50;68.40;;;;;;5038320;28;20021;-65
2023/05/29 05:40:26;;;;;;;2.38;0.70;;;13.60;68.30;;;;;;5040032;28;20025;-65
2023/05/29 05:42:51;;;;;;;1.13;0.93;;;13.60;68.20;;;;;;5039351;28;22403;-70
2023/05/29 05:45:17;;;;;;;4.15;1.27;;;13.60;68.00;;;;;;5036445;28;20034;-70
2023/05/29 05:47:43;;;;;;;1.23;0.98;;;13.70;67.90;;;;;;5031111;28;20080;-65
2023/05/29 05:50:09;;;;;;;2.35;1.17;;;13.70;67.70;;;;;;5029282;28;20557;-64
2023/05/29 05:52:34;;;;;;;2.97;1.13;;;13.70;67.60;;;;;;5028730;28;20058;-65
2023/05/29 05:55:00;;;;;;;2.13;1.20;;;13.80;67.60;;;;;;5013159;28;20029;-65
2023/05/29 05:57:27;;;;;;;1.95;0.70;;;13.80;67.40;;;;;;5028093;28;20100;-65
2023/05/29 05:59:53;;;;;;;2.20;0.70;;;13.80;67.30;;;;;;5028243;28;20068;-70
2023/05/29 06:02:18;;;;;;;2.85;0.60;;;13.90;67.20;;;;;;5023936;28;20025;-70
2023/05/29 06:04:44;;;;;;;0.88;0.75;;;13.90;67.00;;;;;;5026047;28;20216;-66
2023/05/29 06:07:10;;;;;;;5.22;0.90;;;14.00;66.90;;;;;;5025617;28;20499;-65
2023/05/29 06:09:37;;;;;;;2.95;0.90;;;14.10;66.50;;;;;;5024583;28;20029;-70
2023/05/29 06:12:02;;;;;;;4.10;0.88;;;14.10;66.40;;;;;;5029211;28;20117;-70
2023/05/29 06:14:28;;;;;;;4.60;0.57;;;14.20;66.20;;;;;;5025487;28;20112;-70
2023/05/29 06:16:54;;;;;;;3.25;0.90;;;14.30;66.00;;;;;;5030752;28;20025;-70
2023/05/29 06:19:20;;;;;;;1.75;0.82;;;14.40;65.80;;;;;;5027341;28;20116;-70
2023/05/29 06:21:46;;;;;;;3.22;0.60;;;14.40;65.40;;;;;;5029124;28;20032;-70
2023/05/29 06:24:12;;;;;;;2.88;1.10;;;14.40;65.00;;;;;;5023144;28;20021;-70
2023/05/29 06:26:38;;;;;;;1.95;0.63;;;14.50;65.00;;;;;;5028892;28;20049;-70
2023/05/29 06:29:06;;;;;;;1.98;1.15;;;14.50;64.70;;;;;;5016483;28;20037;-70
2023/05/29 06:31:32;;;;;;;3.05;1.27;;;14.60;64.70;;;;;;5029826;28;20029;-70
2023/05/29 06:33:58;;;;;;;1.20;0.60;;;14.60;64.30;;;;;;5007178;28;20037;-70
2023/05/29 06:36:24;;;;;;;3.08;0.75;;;14.70;64.20;;;;;;5021326;28;20120;-70
2023/05/29 06:38:51;;;;;;;1.35;0.88;;;14.70;64.10;;;;;;5029247;28;20025;-70
2023/05/29 06:41:16;;;;;;;2.70;0.70;;;14.80;63.80;;;;;;5028978;28;20038;-70
2023/05/29 06:43:42;;;;;;;1.60;0.47;;;14.80;63.50;;;;;;5026235;28;20232;-70
2023/05/29 06:46:08;;;;;;;2.80;1.00;;;14.90;63.10;;;;;;5020548;28;20107;-70
2023/05/29 06:48:37;;;;;;;3.90;0.63;;;14.90;63.10;;;;;;5029167;28;20033;-70
2023/05/29 06:51:08;;;;;;;6.50;1.23;;;15.00;62.90;;;;;;5031208;28;20064;-70
2023/05/29 06:53:38;;;;;;;3.17;0.95;;;15.10;62.80;;;;;;5030564;28;20075;-70
2023/05/29 06:56:05;;;;;;;1.30;1.05;;;15.10;62.50;;;;;;5017382;28;20037;-70
2023/05/29 06:58:31;;;;;;;0.50;0.50;;;15.20;62.20;;;;;;5028544;28;20048;-70
2023/05/29 07:00:57;;;;;;;1.80;0.60;;;15.20;62.00;;;;;;5030926;28;20437;-65
2023/05/29 07:03:25;;;;;;;0.50;0.50;;;15.30;62.00;;;;;;5025879;28;20036;-70
2023/05/29 07:05:50;;;;;;;0.50;0.50;;;15.30;62.00;;;;;;5028659;28;20489;-70
2023/05/29 07:08:16;;;;;;;2.60;0.47;;;15.40;61.80;;;;;;5029405;28;20022;-70
2023/05/29 07:10:42;;;;;;;4.65;0.80;;;15.60;61.60;;;;;;5028872;28;20029;-70
2023/05/29 07:13:08;;;;;;;1.85;0.52;;;15.60;60.90;;;;;;5029212;28;20391;-70
2023/05/29 07:15:34;;;;;;;2.65;0.90;;;15.60;60.80;;;;;;5028062;28;20018;-70
2023/05/29 07:18:00;;;;;;;2.08;0.55;;;15.70;60.80;;;;;;5027474;28;20032;-70
2023/05/29 07:20:26;;;;;;;1.50;0.95;;;15.80;60.60;;;;;;5019950;28;20344;-70
2023/05/29 07:22:51;;;;;;;1.50;0.60;;;15.80;60.20;;;;;;5031252;28;20032;-70
2023/05/29 07:25:17;;;;;;;6.05;1.33;;;15.80;60.00;;;;;;5033252;28;20049;-70
2023/05/29 07:27:43;;;;;;;5.82;0.77;;;15.90;60.10;;;;;;5037470;28;20033;-70
2023/05/29 07:30:09;;;;;;;2.25;0.75;;;16.00;59.90;;;;;;5041938;28;20035;-70
2023/05/29 07:32:35;;;;;;;1.98;0.80;;;16.00;59.70;;;;;;5031294;28;20021;-71
2023/05/29 07:35:00;;;;;;;2.78;1.05;;;16.10;59.70;;;;;;5042277;28;20032;-70
2023/05/29 07:37:26;;;;;;;2.70;1.02;;;16.20;59.60;;;;;;5030263;28;20108;-64
2023/05/29 07:39:52;;;;;;;1.63;0.90;;;16.30;59.20;;;;;;5031954;28;20060;-70
2023/05/29 07:42:17;;;;;;;6.25;1.67;;;16.40;59.10;;;;;;5029906;28;20045;-71
2023/05/29 07:44:45;;;;;;;1.35;0.70;;;16.50;59.00;;;;;;5034442;28;20033;-70
2023/05/29 07:47:11;;;;;;;1.55;0.60;;;16.50;59.40;;;;;;5030586;28;20034;-71
2023/05/29 07:49:37;;;;;;;3.00;0.80;;;16.50;58.80;;;;;;5049028;28;20021;-70
2023/05/29 07:52:03;;;;;;;4.95;1.30;;;16.60;58.90;;;;;;5035111;28;20037;-70
2023/05/29 07:54:32;;;;;;;2.10;0.60;;;16.70;58.50;;;;;;5027971;28;20355;-70
2023/05/29 07:57:02;;;;;;;1.27;0.77;;;16.70;58.50;;;;;;5036055;28;20577;-70
2023/05/29 07:59:29;;;;;;;2.13;0.80;;;16.80;58.40;;;;;;5028651;28;20033;-70
2023/05/29 08:01:58;;;;;;;5.25;0.73;;;16.80;58.50;;;;;;5007937;28;20036;-65
2023/05/29 08:04:24;;;;;;;4.05;1.10;;;16.80;58.60;;;;;;5035245;28;20024;-65
2023/05/29 08:06:50;;;;;;;2.03;0.80;;;16.90;58.70;;;;;;5012418;28;20033;-65
2023/05/29 08:09:17;;;;;;;2.22;1.13;;;17.00;58.30;;;;;;5031115;28;20456;-65
2023/05/29 08:11:45;;;;;;;8.38;1.20;;;17.00;58.60;;;;;;5023838;28;20917;-65
2023/05/29 08:14:11;;;;;;;2.85;1.13;;;17.00;58.00;;;;;;5033635;28;20116;-66
2023/05/29 08:16:37;;;;;;;2.75;0.90;;;17.10;58.00;;;;;;5028706;28;20468;-67
2023/05/29 08:19:03;;;;;;;0.98;0.65;;;17.20;57.90;;;;;;5029106;28;20116;-68
2023/05/29 08:21:31;;;;;;;0.65;0.50;;;17.30;58.10;;;;;;5030665;28;20029;-67
2023/05/29 08:23:57;;;;;;;2.72;1.45;;;17.50;57.40;;;;;;5027933;28;20029;-67
2023/05/29 08:26:23;;;;;;;1.75;0.90;;;17.60;57.00;;;;;;5031778;28;20053;-66
2023/05/29 08:28:49;;;;;;;2.97;0.77;;;17.60;57.00;;;;;;5030654;28;20072;-67
2023/05/29 08:31:15;;;;;;;3.40;0.60;;;17.70;56.70;;;;;;5031204;28;20033;-66
2023/05/29 08:33:40;;;;;;;2.05;0.65;;;17.70;56.40;;;;;;5011110;28;20025;-67
2023/05/29 08:36:06;;;;;;;0.57;0.40;;;17.70;56.20;;;;;;5027116;28;20026;-67
2023/05/29 08:38:32;;;;;;;3.80;1.10;;;17.70;56.40;;;;;;5031485;28;20116;-69
2023/05/29 08:40:58;;;;;;;1.52;0.70;;;17.80;56.00;;;;;;5030376;28;20036;-67
2023/05/29 08:43:29;;;;;;;2.00;1.13;;;17.90;56.00;;;;;;5033276;28;20041;-67
2023/05/29 08:45:59;;;;;;;3.05;0.82;;;17.90;55.90;;;;;;5024657;28;20484;-67
2023/05/29 08:48:27;;;;;;;2.58;1.08;;;18.00;55.50;;;;;;5031307;28;20384;-69
2023/05/29 08:50:54;;;;;;;2.05;0.90;;;18.00;55.40;;;;;;5029638;28;20312;-68
2023/05/29 08:53:22;;;;;;;0.93;0.70;;;18.10;55.40;;;;;;5026899;28;20037;-67
2023/05/29 08:55:51;;;;;;;1.10;0.57;;;18.20;55.00;;;;;;5037230;28;20397;-68
2023/05/29 08:58:17;;;;;;;5.38;0.77;;;18.30;55.00;;;;;;5024827;28;20053;-69
2023/05/29 09:00:47;;;;;;;0.57;0.43;;;18.40;54.90;;;;;;5033814;28;20029;-68
2023/05/29 09:03:13;;;;;;;2.85;0.70;;;18.50;54.50;;;;;;5033076;28;20084;-68
2023/05/29 09:05:40;;;;;;;5.15;1.35;;;18.60;54.30;;;;;;5035933;28;20033;-69
2023/05/29 09:08:11;;;;;;;3.10;0.80;;;18.60;54.30;;;;;;5033816;28;20099;-67
2023/05/29 09:10:39;;;;;;;0.88;0.80;;;18.70;54.30;;;;;;5031487;28;20551;-67
2023/05/29 09:13:05;;;;;;;0.85;0.68;;;18.80;54.10;;;;;;5030149;28;20392;-69
2023/05/29 09:15:31;;;;;;;1.35;0.85;;;18.80;54.00;;;;;;5025073;28;20033;-69
2023/05/29 09:17:58;;;;;;;0.82;0.55;;;18.90;53.80;;;;;;5032010;28;20423;-67
2023/05/29 09:20:25;;;;;;;1.33;0.57;;;18.90;53.80;;;;;;5027151;28;20025;-67
2023/05/29 09:22:58;;;;;;;4.65;0.70;;;19.00;53.40;;;;;;5006115;28;20150;-67
2023/05/29 09:25:26;;;;;;;2.92;1.02;;;19.10;53.60;;;;;;5012697;28;20048;-67
2023/05/29 09:28:04;;;;;;;1.40;0.60;;;19.10;53.20;;;;;;5027085;28;20033;-67
2023/05/29 09:30:41;;;;;;;1.75;0.93;;;19.10;52.50;;;;;;5029419;28;20461;-70
2023/05/29 09:33:12;;;;;;;1.52;0.73;;;19.10;52.90;;;;;;5021057;28;20441;-67
2023/05/29 09:35:40;;;;;;;2.75;1.13;;;19.10;52.90;;;;;;5026292;28;20115;-68
2023/05/29 09:38:07;;;;;;;1.05;0.55;;;19.20;53.00;;;;;;5027391;28;20033;-68
2023/05/29 09:40:35;;;;;;;2.65;0.82;;;19.30;53.00;;;;;;5030222;28;20029;-67
2023/05/29 09:43:12;;;;;;;0.38;0.38;;;19.60;52.90;;;;;;5035128;28;20431;-67
2023/05/29 09:45:39;;;;;;;2.00;1.00;;;19.80;52.60;;;;;;5029060;28;20144;-69
2023/05/29 09:48:07;;;;;;;2.47;0.82;;;19.90;52.30;;;;;;5022056;28;20088;-68
2023/05/29 09:50:33;;;;;;;3.42;0.55;;;20.00;51.80;;;;;;5028940;28;20538;-67
2023/05/29 09:53:01;;;;;;;1.50;0.73;;;20.00;51.70;;;;;;5025287;28;20029;-70
2023/05/29 09:55:28;;;;;;;1.80;0.95;;;20.00;52.00;;;;;;5029543;28;20420;-70
2023/05/29 09:57:55;;;;;;;3.70;1.15;;;20.00;51.70;;;;;;5028792;28;20457;-70
2023/05/29 10:00:21;;;;;;;2.65;1.05;;;20.10;51.80;;;;;;5030734;28;20056;-70
2023/05/29 10:02:50;;;;;;;1.30;0.63;;;20.10;51.20;;;;;;5027855;28;20037;-70
2023/05/29 10:05:16;;;;;;;1.20;0.70;;;20.20;51.40;;;;;;5028662;28;20036;-67
2023/05/29 10:07:48;;;;;;;2.58;1.15;;;20.30;51.40;;;;;;5026596;28;20396;-67
2023/05/29 10:10:14;;;;;;;1.45;0.50;;;20.40;51.30;;;;;;5026145;28;20041;-67
2023/05/29 10:12:44;;;;;;;1.48;0.70;;;20.40;51.00;;;;;;5029472;28;20030;-68
2023/05/29 10:15:14;;;;;;;1.58;0.65;;;20.50;51.10;;;;;;5024836;28;20035;-67
2023/05/29 10:17:50;;;;;;;2.90;1.15;;;20.50;50.80;;;;;;5033027;28;20370;-70
2023/05/29 10:20:19;;;;;;;0.95;0.70;;;20.60;50.60;;;;;;5035632;28;20381;-67
2023/05/29 10:22:51;;;;;;;2.25;0.73;;;20.60;50.70;;;;;;5026371;28;20021;-67
2023/05/29 10:25:21;;;;;;;3.85;1.38;;;20.70;50.40;;;;;;5031245;28;20345;-70
2023/05/29 10:27:48;;;;;;;1.23;0.90;;;20.90;50.10;;;;;;5024502;28;20053;-70
2023/05/29 10:30:14;;;;;;;1.15;0.50;;;21.00;50.10;;;;;;5028426;28;20044;-70
2023/05/29 10:33:17;;;;;;;0.65;0.50;;;21.10;49.80;;;;;;5036380;28;20390;-70
2023/05/29 10:35:58;;;;;;;2.38;0.50;;;21.20;49.50;;;;;;5029440;28;20013;-70
2023/05/29 10:38:26;;;;;;;2.05;0.70;;;21.30;49.10;;;;;;5027378;28;20018;-70
2023/05/29 10:40:52;;;;;;;1.75;0.70;;;21.30;48.20;;;;;;5033038;28;20033;-69
2023/05/29 10:43:33;;;;;;;2.60;0.73;;;21.30;47.90;;;;;;5039123;28;20039;-70
2023/05/29 10:46:00;;;;;;;1.80;1.00;;;21.40;48.40;;;;;;5030581;28;20053;-70
2023/05/29 10:48:29;;;;;;;6.15;1.02;;;21.50;48.00;;;;;;5028171;28;20488;-70
2023/05/29 10:50:56;;;;;;;2.08;0.82;;;21.60;48.00;;;;;;5030171;28;20025;-70
2023/05/29 10:53:30;;;;;;;2.25;0.70;;;21.70;47.70;;;;;;5033005;28;20025;-69
2023/05/29 10:55:58;;;;;;;2.08;0.55;;;21.80;47.20;;;;;;5031194;28;20052;-70
2023/05/29 10:58:25;;;;;;;0.82;0.50;;;21.70;47.00;;;;;;5029914;28;20540;-70
2023/05/29 11:00:57;;;;;;;1.35;0.68;;;21.60;46.90;;;;;;5022685;28;20038;-70
2023/05/29 11:03:25;;;;;;;1.65;0.70;;;21.70;46.80;;;;;;5020364;28;20108;-70
2023/05/29 11:06:07;;;;;;;3.00;0.68;;;21.60;46.80;;;;;;5022123;28;20546;-70
2023/05/29 11:08:46;;;;;;;5.35;1.52;;;21.70;47.10;;;;;;5024654;28;20040;-69
2023/05/29 11:11:13;;;;;;;3.92;0.77;;;21.70;46.70;;;;;;5024869;28;20545;-70
2023/05/29 11:13:40;;;;;;;1.88;1.00;;;21.80;46.60;;;;;;5029739;28;20025;-67
2023/05/29 11:16:25;;;;;;;2.08;0.70;;;21.80;46.60;;;;;;5018172;28;20030;-69
2023/05/29 11:18:51;;;;;;;3.40;1.02;;;21.90;46.70;;;;;;5039127;28;20099;-70
2023/05/29 11:21:44;;;;;;;0.90;0.55;;;22.00;45.90;;;;;;5022517;28;20485;-70
2023/05/29 11:24:27;;;;;;;0.50;0.50;;;22.10;46.00;;;;;;5028097;28;20062;-67
2023/05/29 11:26:55;;;;;;;1.92;0.50;;;22.20;46.10;;;;;;5028868;28;20133;-67
2023/05/29 11:29:28;;;;;;;3.53;1.05;;;22.40;45.90;;;;;;5027525;28;20041;-67
2023/05/29 11:32:05;;;;;;;7.47;0.90;;;22.50;45.50;;;;;;5027887;28;20558;-67
2023/05/29 11:34:32;;;;;;;3.35;0.52;;;22.50;45.00;;;;;;5019710;28;20049;-67
2023/05/29 11:37:02;;;;;;;1.17;0.30;;;22.60;44.60;;;;;;5016714;28;20026;-67
2023/05/29 11:39:28;;;;;;;2.30;0.77;;;22.50;44.50;;;;;;5006854;28;20417;-67
2023/05/29 11:41:55;;;;;;;1.42;0.73;;;22.60;44.30;;;;;;5019413;28;20409;-68
2023/05/29 11:44:23;;;;;;;1.75;0.70;;;22.70;44.30;;;;;;5027009;28;20013;-67
2023/05/29 11:47:03;;;;;;;1.67;0.70;;;22.80;44.30;;;;;;5027735;28;20052;-67
2023/05/29 11:49:33;;;;;;;2.45;0.60;;;22.80;44.10;;;;;;5025115;28;20025;-69
2023/05/29 11:52:14;;;;;;;1.35;1.02;;;22.80;44.20;;;;;;5011072;28;20038;-70
2023/05/29 11:54:46;;;;;;;2.40;0.82;;;22.80;44.10;;;;;;5042138;28;20033;-70
2023/05/29 11:57:21;;;;;;;1.40;1.00;;;22.80;43.70;;;;;;5031084;28;20024;-70
2023/05/29 11:59:47;;;;;;;0.57;0.47;;;22.80;43.60;;;;;;5027046;28;20029;-70
2023/05/29 12:02:14;;;;;;;0.50;0.47;;;22.80;43.50;;;;;;5024002;28;20044;-70
2023/05/29 12:04:39;;;;;;;1.27;0.82;;;22.80;43.70;;;;;;5030264;28;20033;-71
2023/05/29 12:07:20;;;;;;;1.52;0.80;;;22.90;43.10;;;;;;5026847;28;20037;-66
2023/05/29 12:09:48;;;;;;;1.40;0.65;;;22.90;43.20;;;;;;5026604;28;20048;-68
2023/05/29 12:12:14;;;;;;;2.08;1.17;;;22.90;43.00;;;;;;5028350;28;20104;-67
2023/05/29 12:14:40;;;;;;;1.60;0.80;;;23.00;43.20;;;;;;5031646;28;20033;-67
2023/05/29 12:17:06;;;;;;;3.60;1.70;;;23.00;43.30;;;;;;5022614;28;20030;-68
2023/05/29 12:19:31;;;;;;;7.07;1.02;;;23.20;43.00;;;;;;5016472;28;20025;-68
2023/05/29 12:21:57;;;;;;;3.20;0.82;;;23.30;42.80;;;;;;5019107;28;20033;-67
2023/05/29 12:24:23;;;;;;;1.77;0.95;;;23.50;42.80;;;;;;5024360;28;20040;-70
2023/05/29 12:26:50;;;;;;;3.63;0.68;;;23.60;42.20;;;;;;5028020;28;20056;-70
2023/05/29 12:29:16;;;;;;;3.88;0.88;;;23.60;42.20;;;;;;5030917;28;20049;-67
2023/05/29 12:31:42;;;;;;;0.82;0.68;;;23.80;42.20;;;;;;5028744;28;20134;-67
2023/05/29 12:34:15;;;;;;;4.55;1.30;;;23.90;42.10;;;;;;5030511;28;20044;-67
2023/05/29 12:36:44;;;;;;;1.45;0.82;;;24.00;41.50;;;;;;5029164;28;20045;-67
2023/05/29 12:39:09;;;;;;;0.88;0.40;;;23.90;41.70;;;;;;5029987;28;20021;-67
2023/05/29 12:41:37;;;;;;;4.25;0.88;;;23.90;40.90;;;;;;5025805;28;20037;-67
2023/05/29 12:44:04;;;;;;;4.68;1.10;;;23.90;40.80;;;;;;5018901;28;20489;-68
2023/05/29 12:46:39;;;;;;;2.25;1.23;;;23.90;40.70;;;;;;5027572;28;20370;-67
2023/05/29 12:49:12;;;;;;;0.65;0.47;;;23.80;40.90;;;;;;5028916;28;20102;-68
2023/05/29 12:51:44;;;;;;;3.33;0.70;;;23.80;41.10;;;;;;5028870;28;20037;-68